Terminal Aerodrome Forecast
Issued by NWS

Home | Current Version | Previous Version | Text Only | Print | Product List | Glossary On
Versions: 1 2 3 4 5 6 7 8 9 10 11 12 13 14 15 16 17 18 19 20
165
FTUS44 KLIX 291124
TAFGPT
TAF
KGPT 291124Z 2912/3012 14006KT 6SM BR SCT015
     FM291400 14009KT P6SM BKN025
     FM291600 14011KT P6SM BKN050
     FM291800 15011KT P6SM SCT070
     FM300800 15009KT P6SM OVC015=

USA.gov is the U.S. government's official web portal to all federal, state and local government web resources and services.